sensor_id;sensor_type;location;lat;lon;timestamp;temperature;humidity
29207;DHT22;16247;50.840;4.382;2023-04-25T05:31:31;8.10;99.90
29207;DHT22;16247;50.840;4.382;2023-04-25T05:34:19;8.10;99.90
29207;DHT22;16247;50.840;4.382;2023-04-25T05:44:41;8.60;99.90
29207;DHT22;16247;50.840;4.382;2023-04-25T06:00:23;8.50;99.90
29207;DHT22;16247;50.840;4.382;2023-04-25T06:11:04;8.60;99.90
29207;DHT22;16247;50.840;4.382;2023-04-25T06:13:51;8.80;99.90
29207;DHT22;16247;50.840;4.382;2023-04-25T06:24:45;8.60;99.90
29207;DHT22;16247;50.840;4.382;2023-04-25T06:27:21;8.60;99.90
29207;DHT22;16247;50.840;4.382;2023-04-25T06:29:56;8.90;99.90
29207;DHT22;16247;50.840;4.382;2023-04-25T06:37:55;9.00;99.90
29207;DHT22;16247;50.840;4.382;2023-04-25T06:45:52;8.90;99.90
29207;DHT22;16247;50.840;4.382;2023-04-25T10:53:13;12.10;99.90
29207;DHT22;16247;50.840;4.382;2023-04-25T11:10:12;11.50;99.90
29207;DHT22;16247;50.840;4.382;2023-04-25T11:12:50;11.10;99.90
29207;DHT22;16247;50.840;4.382;2023-04-25T11:15:23;10.80;99.90
29207;DHT22;16247;50.840;4.382;2023-04-25T11:17:52;10.80;99.90
29207;DHT22;16247;50.840;4.382;2023-04-25T11:20:18;10.70;99.90
29207;DHT22;16247;50.840;4.382;2023-04-25T11:22:57;10.60;99.90
29207;DHT22;16247;50.840;4.382;2023-04-25T11:25:25;10.60;99.90
29207;DHT22;16247;50.840;4.382;2023-04-25T11:33:30;11.60;99.90
29207;DHT22;16247;50.840;4.382;2023-04-25T11:38:49;11.30;99.90
29207;DHT22;16247;50.840;4.382;2023-04-25T11:41:15;11.30;99.90
29207;DHT22;16247;50.840;4.382;2023-04-25T11:43:49;11.60;99.90
29207;DHT22;16247;50.840;4.382;2023-04-25T11:46:34;11.50;99.90
29207;DHT22;16247;50.840;4.382;2023-04-25T11:49:15;11.30;99.90
29207;DHT22;16247;50.840;4.382;2023-04-25T11:51:47;11.20;99.90
29207;DHT22;16247;50.840;4.382;2023-04-25T12:00:30;11.60;99.90
29207;DHT22;16247;50.840;4.382;2023-04-25T12:06:37;11.80;99.90
29207;DHT22;16247;50.840;4.382;2023-04-25T12:09:35;12.10;99.90
29207;DHT22;16247;50.840;4.382;2023-04-25T12:12:13;12.10;99.90
29207;DHT22;16247;50.840;4.382;2023-04-25T12:14:45;12.20;99.90
29207;DHT22;16247;50.840;4.382;2023-04-25T12:17:34;12.20;99.90
29207;DHT22;16247;50.840;4.382;2023-04-25T12:20:15;12.60;99.90
29207;DHT22;16247;50.840;4.382;2023-04-25T12:23:01;12.80;99.90
29207;DHT22;16247;50.840;4.382;2023-04-25T13:17:21;11.90;99.90
29207;DHT22;16247;50.840;4.382;2023-04-25T13:22:46;11.70;99.90
29207;DHT22;16247;50.840;4.382;2023-04-25T13:51:06;12.90;99.90
29207;DHT22;16247;50.840;4.382;2023-04-25T13:53:31;12.70;99.90
29207;DHT22;16247;50.840;4.382;2023-04-25T13:56:19;12.20;99.90
29207;DHT22;16247;50.840;4.382;2023-04-25T13:58:57;12.40;99.90
29207;DHT22;16247;50.840;4.382;2023-04-25T14:07:36;11.90;99.90
29207;DHT22;16247;50.840;4.382;2023-04-25T14:10:15;11.60;99.90
29207;DHT22;16247;50.840;4.382;2023-04-25T14:36:29;11.00;99.90
29207;DHT22;16247;50.840;4.382;2023-04-25T14:39:36;11.30;99.90
29207;DHT22;16247;50.840;4.382;2023-04-25T14:42:15;11.50;99.90
29207;DHT22;16247;50.840;4.382;2023-04-25T14:45:33;11.60;99.90
29207;DHT22;16247;50.840;4.382;2023-04-25T14:56:23;12.10;99.90
29207;DHT22;16247;50.840;4.382;2023-04-25T14:59:30;12.20;99.90
29207;DHT22;16247;50.840;4.382;2023-04-25T15:02:08;12.10;99.90
29207;DHT22;16247;50.840;4.382;2023-04-25T15:04:50;11.90;99.90
29207;DHT22;16247;50.840;4.382;2023-04-25T15:08:01;11.80;99.90
29207;DHT22;16247;50.840;4.382;2023-04-25T15:15:58;11.90;99.90
29207;DHT22;16247;50.840;4.382;2023-04-25T15:36:57;11.80;99.90
29207;DHT22;16247;50.840;4.382;2023-04-25T15:39:28;11.70;99.90
29207;DHT22;16247;50.840;4.382;2023-04-25T15:41:57;11.60;99.90
29207;DHT22;16247;50.840;4.382;2023-04-25T15:44:23;11.40;99.90
29207;DHT22;16247;50.840;4.382;2023-04-25T15:46:53;11.40;99.90
29207;DHT22;16247;50.840;4.382;2023-04-25T15:49:21;11.50;99.90
29207;DHT22;16247;50.840;4.382;2023-04-25T15:51:48;11.60;99.90
29207;DHT22;16247;50.840;4.382;2023-04-25T15:54:18;11.70;99.90
29207;DHT22;16247;50.840;4.382;2023-04-25T15:56:44;11.70;99.90
29207;DHT22;16247;50.840;4.382;2023-04-25T15:59:12;11.70;99.90
29207;DHT22;16247;50.840;4.382;2023-04-25T16:04:10;11.60;99.90
29207;DHT22;16247;50.840;4.382;2023-04-25T16:06:47;11.40;99.90
29207;DHT22;16247;50.840;4.382;2023-04-25T16:09:41;11.20;99.90
29207;DHT22;16247;50.840;4.382;2023-04-25T16:12:09;11.20;99.90
29207;DHT22;16247;50.840;4.382;2023-04-25T16:14:50;11.10;99.90
29207;DHT22;16247;50.840;4.382;2023-04-25T16:17:26;11.00;99.90
29207;DHT22;16247;50.840;4.382;2023-04-25T16:19:57;11.10;99.90
29207;DHT22;16247;50.840;4.382;2023-04-25T16:22:50;11.00;99.90
29207;DHT22;16247;50.840;4.382;2023-04-25T16:25:16;11.00;99.90
29207;DHT22;16247;50.840;4.382;2023-04-25T16:30:12;11.00;99.90
29207;DHT22;16247;50.840;4.382;2023-04-25T16:32:38;10.90;99.90
29207;DHT22;16247;50.840;4.382;2023-04-25T16:35:05;11.00;99.90
29207;DHT22;16247;50.840;4.382;2023-04-25T16:37:35;11.00;99.90
29207;DHT22;16247;50.840;4.382;2023-04-25T16:40:12;11.10;99.90
29207;DHT22;16247;50.840;4.382;2023-04-25T16:42:37;11.20;99.90
29207;DHT22;16247;50.840;4.382;2023-04-25T16:45:19;11.20;99.90
29207;DHT22;16247;50.840;4.382;2023-04-25T16:47:45;11.10;99.90
29207;DHT22;16247;50.840;4.382;2023-04-25T16:52:39;11.40;99.90
29207;DHT22;16247;50.840;4.382;2023-04-25T16:55:05;11.40;99.90
29207;DHT22;16247;50.840;4.382;2023-04-25T16:57:33;11.70;99.90
29207;DHT22;16247;50.840;4.382;2023-04-25T16:59:59;11.80;99.90
29207;DHT22;16247;50.840;4.382;2023-04-25T17:02:25;11.90;99.90
29207;DHT22;16247;50.840;4.382;2023-04-25T17:04:53;11.80;99.90
29207;DHT22;16247;50.840;4.382;2023-04-25T17:07:20;11.70;99.90
29207;DHT22;16247;50.840;4.382;2023-04-25T17:09:49;11.60;99.90
29207;DHT22;16247;50.840;4.382;2023-04-25T17:12:16;11.70;99.90
29207;DHT22;16247;50.840;4.382;2023-04-25T17:14:41;11.70;99.90
29207;DHT22;16247;50.840;4.382;2023-04-25T17:17:08;11.50;99.90
29207;DHT22;16247;50.840;4.382;2023-04-25T17:19:34;11.20;99.90
29207;DHT22;16247;50.840;4.382;2023-04-25T17:22:00;11.20;99.90
29207;DHT22;16247;50.840;4.382;2023-04-25T17:24:27;11.10;99.90
29207;DHT22;16247;50.840;4.382;2023-04-25T17:26:52;11.10;99.90
29207;DHT22;16247;50.840;4.382;2023-04-25T17:29:18;11.00;99.90
29207;DHT22;16247;50.840;4.382;2023-04-25T17:31:45;10.90;99.90
29207;DHT22;16247;50.840;4.382;2023-04-25T17:34:11;10.90;99.90
29207;DHT22;16247;50.840;4.382;2023-04-25T17:36:43;10.90;99.90
29207;DHT22;16247;50.840;4.382;2023-04-25T17:39:09;10.70;99.90
29207;DHT22;16247;50.840;4.382;2023-04-25T17:41:36;10.50;99.90
29207;DHT22;16247;50.840;4.382;2023-04-25T17:44:03;10.30;99.90
29207;DHT22;16247;50.840;4.382;2023-04-25T17:46:32;10.40;99.90
29207;DHT22;16247;50.840;4.382;2023-04-25T17:48:57;10.30;99.90
29207;DHT22;16247;50.840;4.382;2023-04-25T17:51:23;10.20;99.90
29207;DHT22;16247;50.840;4.382;2023-04-25T17:53:49;10.20;99.90
29207;DHT22;16247;50.840;4.382;2023-04-25T17:56:18;10.30;99.90
29207;DHT22;16247;50.840;4.382;2023-04-25T17:58:47;10.30;99.90
29207;DHT22;16247;50.840;4.382;2023-04-25T18:01:14;10.30;99.90
29207;DHT22;16247;50.840;4.382;2023-04-25T18:03:41;10.30;99.90
29207;DHT22;16247;50.840;4.382;2023-04-25T18:06:09;10.30;99.90
29207;DHT22;16247;50.840;4.382;2023-04-25T18:08:34;10.20;99.90
29207;DHT22;16247;50.840;4.382;2023-04-25T18:11:00;10.10;99.90
29207;DHT22;16247;50.840;4.382;2023-04-25T18:13:27;10.00;99.90
29207;DHT22;16247;50.840;4.382;2023-04-25T18:15:53;9.80;99.90
29207;DHT22;16247;50.840;4.382;2023-04-25T18:18:20;9.80;99.90
29207;DHT22;16247;50.840;4.382;2023-04-25T18:20:49;9.80;99.90
29207;DHT22;16247;50.840;4.382;2023-04-25T18:23:15;9.80;99.90
29207;DHT22;16247;50.840;4.382;2023-04-25T18:25:41;9.80;99.90
29207;DHT22;16247;50.840;4.382;2023-04-25T18:28:07;9.70;99.90
29207;DHT22;16247;50.840;4.382;2023-04-25T18:30:33;9.70;99.90
29207;DHT22;16247;50.840;4.382;2023-04-25T18:33:02;9.80;99.90
29207;DHT22;16247;50.840;4.382;2023-04-25T18:35:28;9.90;99.90
29207;DHT22;16247;50.840;4.382;2023-04-25T18:40:25;9.60;99.90
29207;DHT22;16247;50.840;4.382;2023-04-25T18:42:54;9.50;99.90
29207;DHT22;16247;50.840;4.382;2023-04-25T18:45:19;9.30;99.90
29207;DHT22;16247;50.840;4.382;2023-04-25T18:47:45;9.20;99.90
29207;DHT22;16247;50.840;4.382;2023-04-25T18:50:14;9.00;99.90
29207;DHT22;16247;50.840;4.382;2023-04-25T18:53:03;9.00;99.90
29207;DHT22;16247;50.840;4.382;2023-04-25T18:55:29;8.90;99.90
29207;DHT22;16247;50.840;4.382;2023-04-25T18:57:56;8.80;99.90
29207;DHT22;16247;50.840;4.382;2023-04-25T19:00:22;8.70;99.90
29207;DHT22;16247;50.840;4.382;2023-04-25T19:02:50;8.60;99.90
29207;DHT22;16247;50.840;4.382;2023-04-25T19:05:16;8.60;99.90
29207;DHT22;16247;50.840;4.382;2023-04-25T19:07:41;8.70;99.90
29207;DHT22;16247;50.840;4.382;2023-04-25T19:10:09;8.60;99.90
29207;DHT22;16247;50.840;4.382;2023-04-25T19:12:35;8.60;99.90
29207;DHT22;16247;50.840;4.382;2023-04-25T19:15:02;8.60;99.90
29207;DHT22;16247;50.840;4.382;2023-04-25T19:17:29;8.60;99.90
29207;DHT22;16247;50.840;4.382;2023-04-25T19:19:56;8.70;99.90
29207;DHT22;16247;50.840;4.382;2023-04-25T19:22:21;8.60;99.90
29207;DHT22;16247;50.840;4.382;2023-04-25T19:24:47;8.70;99.90
29207;DHT22;16247;50.840;4.382;2023-04-25T19:27:15;8.60;99.90
29207;DHT22;16247;50.840;4.382;2023-04-25T19:29:41;8.40;99.90
29207;DHT22;16247;50.840;4.382;2023-04-25T19:32:13;8.40;99.90
29207;DHT22;16247;50.840;4.382;2023-04-25T19:34:40;8.40;99.90
29207;DHT22;16247;50.840;4.382;2023-04-25T19:37:08;8.50;99.90
29207;DHT22;16247;50.840;4.382;2023-04-25T19:39:36;8.50;99.90
29207;DHT22;16247;50.840;4.382;2023-04-25T19:42:11;8.40;99.90
29207;DHT22;16247;50.840;4.382;2023-04-25T19:44:37;8.40;99.90
29207;DHT22;16247;50.840;4.382;2023-04-25T19:47:04;8.30;99.90
29207;DHT22;16247;50.840;4.382;2023-04-25T19:52:02;8.40;99.90
29207;DHT22;16247;50.840;4.382;2023-04-25T19:56:57;8.30;99.90
29207;DHT22;16247;50.840;4.382;2023-04-25T19:59:25;8.30;99.90
29207;DHT22;16247;50.840;4.382;2023-04-25T20:01:59;8.40;99.90
29207;DHT22;16247;50.840;4.382;2023-04-25T20:04:29;8.40;99.90
29207;DHT22;16247;50.840;4.382;2023-04-25T20:06:54;8.40;99.90
29207;DHT22;16247;50.840;4.382;2023-04-25T20:09:20;8.30;99.90
29207;DHT22;16247;50.840;4.382;2023-04-25T20:11:46;8.20;99.90
29207;DHT22;16247;50.840;4.382;2023-04-25T20:16:40;8.20;99.90
29207;DHT22;16247;50.840;4.382;2023-04-25T20:19:06;8.20;99.90
29207;DHT22;16247;50.840;4.382;2023-04-25T20:21:32;7.90;99.90
29207;DHT22;16247;50.840;4.382;2023-04-25T20:24:02;8.10;99.90
29207;DHT22;16247;50.840;4.382;2023-04-25T20:26:28;8.10;99.90
29207;DHT22;16247;50.840;4.382;2023-04-25T20:28:54;8.00;99.90
29207;DHT22;16247;50.840;4.382;2023-04-25T20:31:19;8.00;99.90
29207;DHT22;16247;50.840;4.382;2023-04-25T20:33:45;8.00;99.90
29207;DHT22;16247;50.840;4.382;2023-04-25T20:36:11;8.00;99.90
29207;DHT22;16247;50.840;4.382;2023-04-25T20:38:45;7.90;99.90
29207;DHT22;16247;50.840;4.382;2023-04-25T20:41:11;7.80;99.90
29207;DHT22;16247;50.840;4.382;2023-04-25T20:43:39;7.90;99.90
29207;DHT22;16247;50.840;4.382;2023-04-25T20:46:10;7.90;99.90
29207;DHT22;16247;50.840;4.382;2023-04-25T20:48:37;7.90;99.90
29207;DHT22;16247;50.840;4.382;2023-04-25T20:51:06;8.00;99.90
29207;DHT22;16247;50.840;4.382;2023-04-25T20:53:34;7.90;99.90
29207;DHT22;16247;50.840;4.382;2023-04-25T20:56:00;7.80;99.90
29207;DHT22;16247;50.840;4.382;2023-04-25T20:58:38;7.80;99.90
29207;DHT22;16247;50.840;4.382;2023-04-25T21:01:25;7.80;99.90
29207;DHT22;16247;50.840;4.382;2023-04-25T21:03:56;7.80;99.90
29207;DHT22;16247;50.840;4.382;2023-04-25T21:06:23;7.80;99.90
29207;DHT22;16247;50.840;4.382;2023-04-25T21:08:50;7.80;99.90
29207;DHT22;16247;50.840;4.382;2023-04-25T21:11:16;7.70;99.90
29207;DHT22;16247;50.840;4.382;2023-04-25T21:16:24;8.00;99.90
29207;DHT22;16247;50.840;4.382;2023-04-25T21:21:37;7.70;99.90
29207;DHT22;16247;50.840;4.382;2023-04-25T21:24:23;7.70;99.90
29207;DHT22;16247;50.840;4.382;2023-04-25T21:26:53;7.70;99.90
29207;DHT22;16247;50.840;4.382;2023-04-25T21:29:20;7.60;99.90
29207;DHT22;16247;50.840;4.382;2023-04-25T21:31:46;7.80;99.90
29207;DHT22;16247;50.840;4.382;2023-04-25T21:34:13;7.60;99.90
29207;DHT22;16247;50.840;4.382;2023-04-25T21:36:40;7.70;99.90
29207;DHT22;16247;50.840;4.382;2023-04-25T21:39:06;7.70;99.90
29207;DHT22;16247;50.840;4.382;2023-04-25T21:41:33;7.70;99.90
29207;DHT22;16247;50.840;4.382;2023-04-25T21:46:53;7.50;99.90
29207;DHT22;16247;50.840;4.382;2023-04-25T21:49:19;7.50;99.90
29207;DHT22;16247;50.840;4.382;2023-04-25T21:51:57;7.50;99.90
29207;DHT22;16247;50.840;4.382;2023-04-25T21:54:26;7.50;99.90
29207;DHT22;16247;50.840;4.382;2023-04-25T21:59:23;7.40;99.90
29207;DHT22;16247;50.840;4.382;2023-04-25T22:01:49;7.30;99.90
29207;DHT22;16247;50.840;4.382;2023-04-25T22:04:17;7.30;99.90
29207;DHT22;16247;50.840;4.382;2023-04-25T22:06:45;7.40;99.90
29207;DHT22;16247;50.840;4.382;2023-04-25T22:09:13;7.30;99.90
29207;DHT22;16247;50.840;4.382;2023-04-25T22:11:41;7.30;99.90
29207;DHT22;16247;50.840;4.382;2023-04-25T22:14:09;7.30;99.90
29207;DHT22;16247;50.840;4.382;2023-04-25T22:16:35;7.30;99.90
29207;DHT22;16247;50.840;4.382;2023-04-25T22:19:03;7.40;99.90
29207;DHT22;16247;50.840;4.382;2023-04-25T22:21:29;7.40;99.90
29207;DHT22;16247;50.840;4.382;2023-04-25T22:23:55;7.30;99.90
29207;DHT22;16247;50.840;4.382;2023-04-25T22:26:21;7.20;99.90
29207;DHT22;16247;50.840;4.382;2023-04-25T22:28:49;7.30;99.90
29207;DHT22;16247;50.840;4.382;2023-04-25T22:31:17;7.20;99.90
29207;DHT22;16247;50.840;4.382;2023-04-25T22:33:49;7.20;99.90
29207;DHT22;16247;50.840;4.382;2023-04-25T22:36:16;7.20;99.90
29207;DHT22;16247;50.840;4.382;2023-04-25T22:38:45;6.90;99.90
29207;DHT22;16247;50.840;4.382;2023-04-25T22:41:11;7.20;99.90
29207;DHT22;16247;50.840;4.382;2023-04-25T22:43:38;7.20;99.90
29207;DHT22;16247;50.840;4.382;2023-04-25T22:46:04;7.30;99.90
29207;DHT22;16247;50.840;4.382;2023-04-25T22:48:33;7.30;99.90
29207;DHT22;16247;50.840;4.382;2023-04-25T22:51:02;7.30;99.90
29207;DHT22;16247;50.840;4.382;2023-04-25T22:53:28;7.20;99.90
29207;DHT22;16247;50.840;4.382;2023-04-25T22:55:58;7.20;99.90
29207;DHT22;16247;50.840;4.382;2023-04-25T22:58:28;7.20;99.90
29207;DHT22;16247;50.840;4.382;2023-04-25T23:00:54;7.10;99.90
29207;DHT22;16247;50.840;4.382;2023-04-25T23:03:23;7.10;99.90
29207;DHT22;16247;50.840;4.382;2023-04-25T23:08:39;7.20;99.90
29207;DHT22;16247;50.840;4.382;2023-04-25T23:11:06;7.20;99.90
29207;DHT22;16247;50.840;4.382;2023-04-25T23:13:33;7.30;99.90
29207;DHT22;16247;50.840;4.382;2023-04-25T23:16:08;7.30;99.90
29207;DHT22;16247;50.840;4.382;2023-04-25T23:18:35;7.20;99.90
29207;DHT22;16247;50.840;4.382;2023-04-25T23:21:03;7.30;99.90
29207;DHT22;16247;50.840;4.382;2023-04-25T23:23:29;7.30;99.90
29207;DHT22;16247;50.840;4.382;2023-04-25T23:25:54;7.30;99.90
29207;DHT22;16247;50.840;4.382;2023-04-25T23:28:27;7.20;99.90
29207;DHT22;16247;50.840;4.382;2023-04-25T23:30:52;7.20;99.90
29207;DHT22;16247;50.840;4.382;2023-04-25T23:33:18;7.10;99.90
29207;DHT22;16247;50.840;4.382;2023-04-25T23:35:43;7.10;99.90
29207;DHT22;16247;50.840;4.382;2023-04-25T23:38:09;7.10;99.90
29207;DHT22;16247;50.840;4.382;2023-04-25T23:40:36;7.10;99.90
29207;DHT22;16247;50.840;4.382;2023-04-25T23:45:53;7.20;99.90
29207;DHT22;16247;50.840;4.382;2023-04-25T23:48:21;7.00;99.90
29207;DHT22;16247;50.840;4.382;2023-04-25T23:50:49;7.00;99.90
29207;DHT22;16247;50.840;4.382;2023-04-25T23:53:18;7.10;99.90
29207;DHT22;16247;50.840;4.382;2023-04-25T23:55:47;7.00;99.90
29207;DHT22;16247;50.840;4.382;2023-04-25T23:58:14;7.00;99.90
